Portada
METAR-TAF:

METAR-TAF

Aeroports :

Zonguldak, Turquia

latitud: 41-27N, longitud: 031-48E, altitud: 136 m

Observació

L'informe es va fer fa 34 minuts, a les 15:50 UTC
Vent 9 kt del Nord
Temperatura 24°C
Humitat 74%
Pressió 1005 hPa
Visibilitat 10 km o més
Núvols disperses a una alçada de 2700 ft
Cel ennuvolat a una alçada de 10000 ft

METAR: LTAS 171550Z 36009KT 9999 SCT027 BKN100 24/19 Q1005

Hora: 19:24 (16:24 UTC)

Pronòstic

L'informe es va fer fa 2 hores i 44 minuts, a les 13:40 UTC
Pronòstic vàlid del 17 a les 15 UTC al 17 a les 24 UTC
Vent 8 kt del Nord/Nord-Oest
Visibilitat 10 km o més
Núvols disperses a una alçada de 4000 ft
Cel ennuvolat a una alçada de 10000 ft
Temporalment
l' 17 a les 15 UTC al 17 a les 19 UTC
Vent 20 kt del Nord/Nord-Oest amb ràfegues de 30 kt
Escasses núvols a una alçada de 2500 ft, Cumulonimbus.
Cel ennuvolat a una alçada de 3000 ft
tempesta, pluja

TAF: LTAS 171340Z 1715/1724 34008KT 9999 SCT040 BKN100 TEMPO 1715/1719 34020G30KT -TSRA FEW025CB BKN030

Observacions i pronòstics meteorològics de més de 4000 aeroports (METAR i TAF).

Les estacions disponibles són els punts grocs i vermells al mapa.

Posi el ratolí al punt desitjat per veure el nom de l'estació.

Feu clic per veure les observacions i els pronòstics meteorològics.

Per canviar el mapa: feu clic els botons verds amb una creu de color negre per apropar; al botó verd amb un guió per allunyar la imatge; o en les fletxes verdes per a mapes adjacents.


METAR-TAF: